Time;durP1;ratioP1;P1;durP2;ratioP2;P2;SDS_P1;SDS_P2;PMS_P1;PMS_P2;Temp;Humidity;BMP_temperature;BMP_pressure;BME280_temperature;BME280_humidity;BME280_pressure;Samples;Min_cycle;Max_cycle;Signal;HPM_P1;HPM_P2
2023/12/19 00:00:44;;;;;;;7.75;7.07;;;;;;;2.82;62.01;101234.16;4377150;32;32401;-78
2023/12/19 00:03:12;;;;;;;4.18;3.87;;;;;;;2.97;61.36;101229.94;4406896;32;32628;-78
2023/12/19 00:05:40;;;;;;;8.27;6.85;;;;;;;2.82;62.05;101226.31;4393106;32;33303;-79
2023/12/19 00:08:08;;;;;;;6.10;5.60;;;;;;;2.73;62.12;101222.75;4405864;32;32371;-78
2023/12/19 00:10:36;;;;;;;5.30;4.80;;;;;;;2.88;61.50;101224.63;4403987;32;33794;-80
2023/12/19 00:13:04;;;;;;;2.72;2.60;;;;;;;2.72;62.00;101219.25;4393402;32;33696;-78
2023/12/19 00:15:32;;;;;;;4.53;4.18;;;;;;;2.76;62.33;101226.25;4418368;32;34100;-78
2023/12/19 00:18:00;;;;;;;6.97;4.25;;;;;;;2.74;62.13;101222.75;4405471;32;32876;-78
2023/12/19 00:20:28;;;;;;;1.77;1.73;;;;;;;2.77;62.25;101228.00;4404896;32;33852;-77
2023/12/19 00:22:56;;;;;;;6.60;6.00;;;;;;;3.10;61.02;101231.81;4403722;32;34725;-77
2023/12/19 00:25:24;;;;;;;4.32;4.03;;;;;;;3.48;59.77;101228.69;4405390;32;33632;-77
2023/12/19 00:27:52;;;;;;;7.20;4.50;;;;;;;2.99;60.97;101236.03;4403846;32;32913;-77
2023/12/19 00:30:20;;;;;;;4.28;3.90;;;;;;;2.61;62.80;101231.31;4393188;32;34322;-77
2023/12/19 00:32:48;;;;;;;5.82;3.03;;;;;;;2.54;63.10;101234.69;4416224;32;35863;-77
2023/12/19 00:35:16;;;;;;;4.40;4.15;;;;;;;2.61;63.25;101231.31;4419355;32;33503;-77
2023/12/19 00:37:43;;;;;;;6.00;5.45;;;;;;;2.56;63.06;101232.97;4392723;32;32966;-77
2023/12/19 00:40:12;;;;;;;13.50;4.22;;;;;;;2.49;64.02;101228.56;4404108;32;34984;-77
2023/12/19 00:42:42;;;;;;;2.67;2.55;;;;;;;2.47;64.17;101230.25;4404768;32;34681;-78
2023/12/19 00:45:10;;;;;;;6.47;5.85;;;;;;;2.77;63.16;101238.44;4419239;32;34587;-78
2023/12/19 00:47:41;;;;;;;9.57;5.40;;;;;;;2.87;62.47;101238.53;4395433;32;32849;-78
2023/12/19 00:50:09;;;;;;;4.40;4.10;;;;;;;2.67;63.27;101244.41;4406838;32;33471;-78
2023/12/19 00:52:37;;;;;;;3.50;3.30;;;;;;;2.73;63.30;101244.47;4407476;32;33721;-78
2023/12/19 00:55:05;;;;;;;4.05;3.70;;;;;;;2.73;62.63;101247.09;4395632;32;33607;-78
2023/12/19 00:57:33;;;;;;;3.45;3.22;;;;;;;2.75;63.44;101247.09;4420213;32;34393;-78
2023/12/19 01:00:02;;;;;;;4.45;4.15;;;;;;;2.79;63.29;101243.66;4369829;32;34423;-78
2023/12/19 01:02:33;;;;;;;6.72;5.12;;;;;;;2.77;63.48;101235.84;4403690;32;33614;-78
2023/12/19 01:05:01;;;;;;;5.18;4.80;;;;;;;2.70;63.97;101226.19;4405546;32;33010;-78
2023/12/19 01:07:29;;;;;;;5.50;5.07;;;;;;;2.69;63.58;101231.38;4406659;32;33749;-78
2023/12/19 01:09:56;;;;;;;4.60;4.30;;;;;;;2.69;63.98;101229.66;4403412;32;33611;-78
2023/12/19 01:12:24;;;;;;;1.25;1.25;;;;;;;2.75;64.20;101232.34;4407351;32;33930;-78
2023/12/19 01:14:52;;;;;;;2.60;2.45;;;;;;;2.90;63.57;101228.16;4404075;32;34113;-78
2023/12/19 01:17:19;;;;;;;4.97;4.55;;;;;;;2.87;63.49;101231.59;4406328;32;34314;-77
2023/12/19 01:19:47;;;;;;;6.18;5.57;;;;;;;2.82;64.02;101231.53;4406994;32;33032;-77
2023/12/19 01:22:15;;;;;;;3.42;3.20;;;;;;;2.64;64.14;101233.94;4406778;32;33616;-78
2023/12/19 01:24:43;;;;;;;2.40;1.83;;;;;;;2.57;65.34;101239.94;4395579;32;33470;-78
2023/12/19 01:27:11;;;;;;;9.88;8.98;;;;;;;2.93;64.22;101233.37;4394755;32;34643;-77
2023/12/19 01:29:38;;;;;;;4.60;3.87;;;;;;;2.98;63.99;101229.09;4406538;32;32522;-77
2023/12/19 01:32:06;;;;;;;8.68;7.80;;;;;;;2.93;64.02;101230.78;4405987;32;33946;-78
2023/12/19 01:34:34;;;;;;;5.78;5.20;;;;;;;3.03;63.91;101232.59;4407643;32;34466;-77
2023/12/19 01:37:02;;;;;;;3.47;3.20;;;;;;;3.11;63.57;101225.75;4420821;32;33470;-77
2023/12/19 01:39:30;;;;;;;7.62;6.93;;;;;;;3.07;64.20;101226.56;4407755;32;33795;-78
2023/12/19 01:41:58;;;;;;;2.95;2.75;;;;;;;2.95;64.52;101229.06;4407453;32;33306;-79
2023/12/19 01:44:25;;;;;;;4.43;3.75;;;;;;;2.93;64.32;101223.81;4407420;32;33689;-78
2023/12/19 01:46:53;;;;;;;5.62;4.25;;;;;;;2.98;63.39;101216.91;4407235;32;32457;-79
2023/12/19 01:49:21;;;;;;;2.20;2.10;;;;;;;3.05;63.82;101210.03;4407768;32;33938;-79
2023/12/19 01:51:50;;;;;;;2.72;2.60;;;;;;;3.01;64.09;101206.50;4403435;32;33558;-78
2023/12/19 01:54:18;;;;;;;3.90;3.60;;;;;;;2.91;64.16;101198.59;4406176;32;33766;-78
2023/12/19 01:56:46;;;;;;;5.20;4.78;;;;;;;3.14;63.81;101184.03;4405346;32;32560;-78
2023/12/19 01:59:14;;;;;;;1.35;1.25;;;;;;;3.21;63.55;101179.72;4406146;32;31458;-78
2023/12/19 02:01:43;;;;;;;3.40;3.10;;;;;;;3.04;62.98;101169.16;4406252;32;33297;-78
2023/12/19 02:04:11;;;;;;;4.30;3.08;;;;;;;2.96;64.09;101173.41;4419374;32;32984;-78
2023/12/19 02:06:39;;;;;;;0.88;0.88;;;;;;;3.05;63.40;101173.50;4382202;32;32050;-78
2023/12/19 02:09:07;;;;;;;2.87;2.70;;;;;;;2.96;63.85;101174.28;4417739;32;33731;-78
2023/12/19 02:11:35;;;;;;;3.15;3.00;;;;;;;3.02;64.01;101166.50;4389543;32;33041;-78
2023/12/19 02:14:02;;;;;;;2.05;1.95;;;;;;;2.99;63.69;101155.16;4403248;32;33052;-78
2023/12/19 02:16:30;;;;;;;2.28;2.17;;;;;;;3.02;64.05;101148.25;4403792;32;96027;-78
2023/12/19 02:19:04;;;;;;;5.15;3.08;;;;;;;3.47;61.82;101143.38;4393704;32;32631;-78
2023/12/19 02:21:34;;;;;;;2.20;2.05;;;;;;;3.47;61.25;101153.81;4409434;32;32173;-78
2023/12/19 02:24:02;;;;;;;4.97;4.53;;;;;;;3.28;61.17;101161.50;4380648;32;33096;-78
2023/12/19 02:26:31;;;;;;;3.17;2.50;;;;;;;2.89;63.09;101158.53;4394555;32;34081;-79
2023/12/19 02:28:59;;;;;;;7.47;5.45;;;;;;;3.05;62.88;101150.88;4420199;32;32572;-78
2023/12/19 02:31:26;;;;;;;2.20;2.05;;;;;;;3.06;63.02;101154.38;4406592;32;34784;-78
2023/12/19 02:33:54;;;;;;;2.53;2.33;;;;;;;3.16;62.19;101150.09;4404195;32;33450;-78
2023/12/19 02:36:22;;;;;;;7.78;2.78;;;;;;;2.86;63.74;101158.53;4407293;32;34642;-78
2023/12/19 02:38:50;;;;;;;2.50;2.40;;;;;;;2.88;63.11;101155.06;4406100;32;33133;-78
2023/12/19 02:41:17;;;;;;;1.73;1.62;;;;;;;3.01;63.72;101159.53;4407021;32;33230;-78
2023/12/19 02:43:45;;;;;;;2.58;2.33;;;;;;;3.03;63.87;101156.94;4406166;32;35310;-78
2023/12/19 02:46:23;;;;;;;4.75;2.87;;;;;;;3.04;63.79;101153.50;4408121;32;32887;-78
2023/12/19 02:48:51;;;;;;;1.62;1.62;;;;;;;3.26;63.00;101154.53;4407371;32;33641;-78
2023/12/19 02:51:19;;;;;;;1.55;1.45;;;;;;;2.96;63.75;101152.53;4406434;32;32682;-77
2023/12/19 02:53:47;;;;;;;1.98;1.87;;;;;;;3.11;64.05;101162.22;4393951;32;34101;-79
2023/12/19 02:56:15;;;;;;;1.75;1.65;;;;;;;2.99;63.63;101156.06;4393070;32;31911;-78
2023/12/19 02:58:43;;;;;;;3.50;1.60;;;;;;;2.83;64.34;101155.03;4394637;32;33501;-78
2023/12/19 03:01:10;;;;;;;1.10;1.10;;;;;;;3.08;63.92;101144.78;4394533;32;32672;-78
2023/12/19 03:03:42;;;;;;;4.25;3.87;;;;;;;2.98;64.52;101148.19;4405562;32;34885;-78
2023/12/19 03:06:10;;;;;;;2.28;2.17;;;;;;;3.51;62.42;101145.13;4406057;32;33820;-79
2023/12/19 03:08:37;;;;;;;1.77;1.67;;;;;;;3.03;62.64;101160.41;4406679;32;33349;-78
2023/12/19 03:11:05;;;;;;;2.58;2.37;;;;;;;3.04;63.82;101153.50;4406386;32;33964;-78
2023/12/19 03:13:33;;;;;;;3.25;3.05;;;;;;;2.63;64.82;101146.13;4394544;32;33599;-78
2023/12/19 03:16:00;;;;;;;0.95;0.95;;;;;;;2.54;65.55;101139.09;4404610;32;33106;-78
2023/12/19 03:18:28;;;;;;;2.72;2.62;;;;;;;2.31;66.95;101136.22;4406046;32;34214;-79
2023/12/19 03:20:56;;;;;;;6.25;2.75;;;;;;;2.67;65.43;101128.78;4407178;32;32707;-79
2023/12/19 03:23:24;;;;;;;0.85;0.85;;;;;;;2.81;64.67;101127.19;4407256;32;33683;-79
2023/12/19 03:25:51;;;;;;;3.55;3.25;;;;;;;2.66;65.55;101129.63;4393770;32;33186;-79
2023/12/19 03:28:19;;;;;;;4.15;3.78;;;;;;;2.57;66.09;101133.03;4393647;32;32468;-79
2023/12/19 03:30:46;;;;;;;1.98;1.87;;;;;;;2.25;67.22;101132.69;4393315;32;32849;-79
2023/12/19 03:33:14;;;;;;;1.12;1.12;;;;;;;2.27;67.78;101125.75;4407599;32;34106;-79
2023/12/19 03:35:42;;;;;;;0.60;0.60;;;;;;;2.36;66.65;101135.41;4393636;32;32497;-79
2023/12/19 03:38:11;;;;;;;3.03;2.83;;;;;;;2.24;68.25;101134.44;4406150;32;34275;-79
2023/12/19 03:40:39;;;;;;;1.77;1.65;;;;;;;2.41;66.47;101139.81;4397070;32;32991;-78
2023/12/19 03:43:08;;;;;;;2.85;2.65;;;;;;;2.58;66.56;101134.78;4406045;32;33681;-77
2023/12/19 03:45:35;;;;;;;0.82;0.75;;;;;;;2.74;65.20;101133.19;4406255;32;33401;-78
2023/12/19 03:48:04;;;;;;;2.35;2.15;;;;;;;2.88;65.51;101128.97;4404322;32;33544;-78
2023/12/19 03:50:31;;;;;;;2.87;2.67;;;;;;;2.52;67.00;101124.31;4405146;32;33855;-78
2023/12/19 03:52:59;;;;;;;0.75;0.75;;;;;;;2.60;66.65;101132.19;4392564;32;34752;-77
2023/12/19 03:55:27;;;;;;;3.58;3.15;;;;;;;2.55;66.48;101121.72;4406065;32;33725;-78
2023/12/19 03:57:54;;;;;;;1.67;1.60;;;;;;;2.48;67.75;101122.53;4406473;32;33854;-78
2023/12/19 04:00:22;;;;;;;3.78;3.47;;;;;;;2.67;66.84;101119.22;4405265;32;32634;-78
2023/12/19 04:02:50;;;;;;;2.08;1.98;;;;;;;2.80;66.21;101118.50;4391830;32;32648;-78
2023/12/19 04:05:18;;;;;;;4.28;2.05;;;;;;;2.69;67.36;101130.53;4406191;32;34470;-77
2023/12/19 04:07:45;;;;;;;20.58;1.90;;;;;;;2.75;66.51;101128.00;4405946;32;33966;-78
2023/12/19 04:10:13;;;;;;;1.85;1.25;;;;;;;3.06;66.49;101126.53;4406293;32;32549;-78
2023/12/19 04:12:41;;;;;;;2.00;1.87;;;;;;;3.14;65.02;101123.12;4406560;32;33875;-78
2023/12/19 04:15:09;;;;;;;2.47;2.03;;;;;;;3.02;65.81;101113.44;4406084;32;33516;-78
2023/12/19 04:17:37;;;;;;;0.25;0.25;;;;;;;2.84;66.70;101127.19;4405278;32;34829;-77
2023/12/19 04:20:05;;;;;;;3.45;3.25;;;;;;;2.63;67.80;101135.72;4405807;32;33284;-78
2023/12/19 04:22:33;;;;;;;3.28;3.08;;;;;;;2.40;68.55;101134.59;4395959;32;33440;-78
2023/12/19 04:25:01;;;;;;;2.78;2.67;;;;;;;2.78;67.16;101138.47;4407371;32;33411;-78
2023/12/19 04:27:29;;;;;;;4.28;2.03;;;;;;;3.10;65.63;101145.72;4406415;32;33984;-78
2023/12/19 04:29:56;;;;;;;2.53;1.48;;;;;;;2.76;66.36;101134.97;4407657;32;35193;-77
2023/12/19 04:32:24;;;;;;;0.75;0.75;;;;;;;2.92;65.79;101135.09;4406182;32;33848;-77
2023/12/19 04:34:52;;;;;;;0.37;0.37;;;;;;;3.02;65.00;101140.41;4421716;32;33623;-77
2023/12/19 04:37:20;;;;;;;2.55;2.35;;;;;;;2.17;68.01;101150.81;4407871;32;33557;-79
2023/12/19 04:39:47;;;;;;;1.83;1.73;;;;;;;2.00;68.84;101136.75;4407427;32;33660;-77
2023/12/19 04:42:18;;;;;;;3.53;2.95;;;;;;;1.99;69.17;101137.56;4406034;32;34157;-78
2023/12/19 04:44:46;;;;;;;2.37;2.28;;;;;;;1.93;70.19;101124.47;4407381;32;33097;-77
2023/12/19 04:47:14;;;;;;;2.05;1.95;;;;;;;1.97;69.68;101121.06;4408041;32;32158;-77
2023/12/19 04:49:42;;;;;;;1.50;1.45;;;;;;;2.87;66.53;101127.25;4394829;32;34272;-78
2023/12/19 04:52:10;;;;;;;1.12;1.12;;;;;;;2.70;66.24;101137.50;4402502;32;34002;-78
2023/12/19 04:54:38;;;;;;;0.50;0.50;;;;;;;2.29;67.56;101145.78;4406760;32;34384;-77
2023/12/19 04:57:06;;;;;;;4.60;4.05;;;;;;;2.29;67.60;101150.12;4398077;32;34076;-77
2023/12/19 04:59:34;;;;;;;1.85;1.65;;;;;;;2.42;67.84;101161.53;4406844;32;33707;-78
2023/12/19 05:02:02;;;;;;;0.75;0.75;;;;;;;2.41;67.88;101175.44;4406774;32;34189;-78
2023/12/19 05:04:29;;;;;;;3.92;3.65;;;;;;;2.13;68.93;101180.31;4408157;32;32254;-78
2023/12/19 05:06:57;;;;;;;2.83;2.17;;;;;;;1.93;70.15;101167.03;4394781;32;33050;-78
2023/12/19 05:09:25;;;;;;;0.32;0.32;;;;;;;2.62;67.39;101167.88;4408430;32;33879;-77
2023/12/19 05:11:53;;;;;;;1.85;0.82;;;;;;;2.48;67.18;101159.03;4393375;32;33408;-78
2023/12/19 05:14:20;;;;;;;2.05;1.95;;;;;;;2.12;68.19;101160.31;4403971;32;32627;-78
2023/12/19 05:16:48;;;;;;;1.08;1.02;;;;;;;2.31;68.05;101164.03;4418865;32;33877;-78
2023/12/19 05:19:16;;;;;;;3.20;2.97;;;;;;;2.02;67.81;101153.25;4408344;32;34506;-78
2023/12/19 05:21:43;;;;;;;1.50;1.45;;;;;;;2.14;68.15;101142.13;4408412;32;33783;-78
2023/12/19 05:24:11;;;;;;;0.77;0.77;;;;;;;1.89;68.82;101133.09;4408191;32;33270;-78
2023/12/19 05:26:39;;;;;;;2.03;1.80;;;;;;;2.05;68.25;101140.28;4404287;32;32747;-78
2023/12/19 05:29:06;;;;;;;0.75;0.75;;;;;;;2.12;67.76;101152.50;4408313;32;35943;-78
2023/12/19 05:31:34;;;;;;;4.45;4.03;;;;;;;1.55;69.32;101137.84;4393411;32;33518;-78
2023/12/19 05:34:03;;;;;;;0.93;0.85;;;;;;;1.33;70.19;101131.47;4406331;32;34756;-80
2023/12/19 05:36:33;;;;;;;1.55;1.45;;;;;;;1.49;70.58;101143.84;4408191;32;34228;-78
2023/12/19 05:39:07;;;;;;;1.37;1.35;;;;;;;1.56;70.54;101139.59;4398723;32;32216;-79
2023/12/19 05:41:34;;;;;;;1.83;1.77;;;;;;;1.91;68.90;101123.59;4405471;32;33834;-78
2023/12/19 05:44:02;;;;;;;0.90;0.90;;;;;;;1.98;68.40;101125.41;4394675;32;32027;-78
2023/12/19 05:46:31;;;;;;;1.40;1.30;;;;;;;2.19;67.92;101119.59;4393291;32;32931;-78
2023/12/19 05:48:58;;;;;;;0.20;0.20;;;;;;;1.71;69.13;101116.41;4393610;32;33841;-78
2023/12/19 05:51:26;;;;;;;1.80;1.70;;;;;;;1.69;69.99;101128.50;4407711;32;33284;-78
2023/12/19 05:53:56;;;;;;;10.05;3.87;;;;;;;2.07;68.33;101120.31;4407638;32;34383;-77
2023/12/19 05:56:24;;;;;;;1.20;1.20;;;;;;;1.79;69.09;101112.16;4406842;32;33487;-78
2023/12/19 05:58:52;;;;;;;1.65;1.55;;;;;;;2.18;68.50;101113.47;4417469;32;34545;-77
2023/12/19 06:01:21;;;;;;;2.10;1.83;;;;;;;1.76;69.48;101091.31;4393305;32;32579;-78
2023/12/19 06:03:49;;;;;;;1.08;1.02;;;;;;;2.22;68.23;101102.25;4407019;32;34316;-78
2023/12/19 06:06:17;;;;;;;0.50;0.50;;;;;;;2.66;66.53;101108.78;4406938;32;32445;-78
2023/12/19 06:08:44;;;;;;;3.42;3.12;;;;;;;2.49;66.43;101116.44;4394221;32;32947;-78
2023/12/19 06:11:13;;;;;;;1.40;1.30;;;;;;;2.22;67.83;101098.75;4403277;32;33607;-77
2023/12/19 06:13:41;;;;;;;2.35;2.25;;;;;;;2.44;67.49;101103.34;4406281;32;34827;-77
2023/12/19 06:16:09;;;;;;;0.73;0.73;;;;;;;2.72;66.18;101094.06;4398140;32;33384;-78
2023/12/19 06:18:37;;;;;;;1.75;1.65;;;;;;;2.36;67.13;101097.19;4392616;32;34776;-79
2023/12/19 06:21:05;;;;;;;1.20;1.20;;;;;;;2.61;66.64;101087.00;4403532;32;34451;-78
2023/12/19 06:23:34;;;;;;;1.83;1.73;;;;;;;2.68;65.79;101100.12;4391667;32;33146;-78
2023/12/19 06:26:02;;;;;;;1.50;1.45;;;;;;;2.15;67.27;101105.66;4415951;32;33684;-78
2023/12/19 06:28:32;;;;;;;0.57;0.57;;;;;;;1.72;69.15;101094.72;4402402;32;34123;-77
2023/12/19 06:31:00;;;;;;;0.30;0.30;;;;;;;1.86;68.97;101089.69;4389710;32;34698;-78
2023/12/19 06:33:28;;;;;;;2.40;2.30;;;;;;;1.85;68.78;101090.50;4388405;32;34114;-78
2023/12/19 06:35:58;;;;;;;3.90;2.17;;;;;;;2.00;68.51;101089.84;4402984;32;32877;-77
2023/12/19 06:38:25;;;;;;;2.50;1.83;;;;;;;2.04;68.81;101091.59;4415680;32;33388;-77
2023/12/19 06:40:54;;;;;;;1.55;1.50;;;;;;;2.27;67.69;101097.09;4403145;32;33682;-77
2023/12/19 06:43:21;;;;;;;1.65;1.58;;;;;;;2.33;67.58;101109.31;4401519;32;33175;-77
2023/12/19 06:45:49;;;;;;;1.65;1.55;;;;;;;2.37;67.43;101100.66;4407857;32;32428;-77
2023/12/19 06:48:18;;;;;;;1.15;1.15;;;;;;;2.36;67.43;101106.75;4407205;32;33763;-77
2023/12/19 06:50:45;;;;;;;1.33;1.27;;;;;;;2.63;66.99;101101.81;4407571;32;33902;-77
2023/12/19 06:53:13;;;;;;;4.00;2.75;;;;;;;2.79;66.26;101101.06;4395002;32;32425;-77
2023/12/19 06:55:41;;;;;;;0.88;0.88;;;;;;;2.73;65.82;101110.59;4397135;32;33385;-77
2023/12/19 06:58:08;;;;;;;1.95;1.75;;;;;;;2.50;66.78;101102.53;4406538;32;34078;-77
2023/12/19 07:00:36;;;;;;;2.83;1.58;;;;;;;3.05;65.28;101110.88;4405067;32;33966;-78
2023/12/19 07:03:04;;;;;;;1.17;1.17;;;;;;;2.61;65.98;101113.97;4416719;32;33595;-77
2023/12/19 07:05:32;;;;;;;0.15;0.15;;;;;;;2.16;67.03;101125.63;4402927;32;33479;-78
2023/12/19 07:08:00;;;;;;;1.05;1.05;;;;;;;2.31;67.18;101120.59;4390854;32;33468;-77
2023/12/19 07:10:28;;;;;;;2.83;2.37;;;;;;;2.17;67.10;101119.56;4389300;32;33334;-77
2023/12/19 07:12:55;;;;;;;1.35;1.33;;;;;;;2.13;67.87;101112.56;4401130;32;33556;-78
2023/12/19 07:15:23;;;;;;;1.42;1.42;;;;;;;1.98;67.70;101110.66;4401720;32;31551;-78
2023/12/19 07:17:51;;;;;;;0.98;0.95;;;;;;;1.79;69.01;101112.16;4385477;32;34704;-77
2023/12/19 07:20:19;;;;;;;1.50;1.30;;;;;;;2.40;67.02;101111.13;4401953;32;34488;-79
2023/12/19 07:22:47;;;;;;;2.08;1.10;;;;;;;2.13;67.52;101102.13;4372620;32;33132;-77
2023/12/19 07:25:15;;;;;;;0.90;0.90;;;;;;;2.26;68.38;101098.81;4387623;32;32867;-77
2023/12/19 07:27:44;;;;;;;2.55;1.80;;;;;;;2.23;68.32;101096.19;4398687;32;32262;-77
2023/12/19 07:30:13;;;;;;;1.95;1.77;;;;;;;2.26;67.65;101095.34;4388945;32;32895;-77
2023/12/19 07:32:40;;;;;;;0.30;0.30;;;;;;;2.00;68.41;101115.91;4398782;32;32414;-76
2023/12/19 07:35:09;;;;;;;2.62;2.50;;;;;;;2.22;68.27;101122.22;4395854;32;33238;-77
2023/12/19 07:37:37;;;;;;;1.77;1.08;;;;;;;2.50;66.83;101123.41;4390902;32;32661;-77
2023/12/19 07:40:10;;;;;;;1.92;1.83;;;;;;;2.25;66.79;101133.56;4398190;32;34532;-77
2023/12/19 07:42:40;;;;;;;2.08;1.98;;;;;;;2.14;67.57;101135.19;4388727;32;32951;-77
2023/12/19 07:45:09;;;;;;;1.98;1.87;;;;;;;1.94;68.20;101121.87;4401707;32;33787;-77
2023/12/19 07:47:36;;;;;;;3.75;2.42;;;;;;;1.99;68.70;101109.81;4399109;32;33471;-77
2023/12/19 07:50:05;;;;;;;3.90;2.92;;;;;;;2.01;68.72;101117.66;4388366;32;31818;-77
2023/12/19 07:52:33;;;;;;;0.70;0.70;;;;;;;2.34;67.63;101117.16;4387251;32;33479;-77
2023/12/19 07:55:04;;;;;;;2.35;2.25;;;;;;;2.48;66.78;101125.13;4396003;32;31392;-77
2023/12/19 07:57:31;;;;;;;0.93;0.93;;;;;;;2.16;68.84;101117.81;4398453;32;34888;-78
2023/12/19 07:59:59;;;;;;;1.30;1.27;;;;;;;2.33;67.88;101124.94;4408226;32;33524;-77
2023/12/19 08:02:27;;;;;;;1.08;0.65;;;;;;;2.48;67.18;101127.75;4389603;32;32892;-77
2023/12/19 08:04:56;;;;;;;2.10;2.00;;;;;;;2.63;66.63;101113.97;4396700;32;34334;-77
2023/12/19 08:07:23;;;;;;;0.65;0.65;;;;;;;2.78;65.99;101114.09;4384467;32;33189;-77
2023/12/19 08:09:51;;;;;;;0.70;0.70;;;;;;;2.94;65.23;101121.19;4375755;32;33299;-77
2023/12/19 08:12:19;;;;;;;5.93;3.08;;;;;;;3.12;64.16;101124.81;4377045;32;33376;-76
2023/12/19 08:14:47;;;;;;;0.82;0.77;;;;;;;2.84;64.68;101124.59;4390537;32;33506;-77
2023/12/19 08:17:15;;;;;;;2.17;2.03;;;;;;;2.23;66.18;101130.06;4389885;32;33351;-77
2023/12/19 08:19:43;;;;;;;0.45;0.45;;;;;;;2.41;65.96;101133.72;4396825;32;34151;-77
2023/12/19 08:22:11;;;;;;;0.30;0.30;;;;;;;2.15;67.51;101142.13;4397197;32;32308;-78
2023/12/19 08:24:39;;;;;;;3.25;3.05;;;;;;;2.20;67.30;101134.38;4396730;32;33880;-79
2023/12/19 08:27:07;;;;;;;5.75;1.95;;;;;;;2.36;67.73;101140.62;4395069;32;33236;-77
2023/12/19 08:29:35;;;;;;;3.20;2.40;;;;;;;2.85;65.93;101138.50;4404881;32;34276;-77
2023/12/19 08:32:04;;;;;;;2.53;2.33;;;;;;;2.43;67.00;101137.25;4390517;32;31977;-77
2023/12/19 08:34:31;;;;;;;2.20;2.08;;;;;;;2.51;67.30;101128.63;4412741;32;33660;-77
2023/12/19 08:36:59;;;;;;;1.67;1.60;;;;;;;2.48;67.74;101131.22;4395491;32;32600;-78
2023/12/19 08:39:27;;;;;;;3.20;2.20;;;;;;;2.35;68.77;101123.25;4393505;32;32672;-77
2023/12/19 08:41:55;;;;;;;0.32;0.32;;;;;;;2.92;66.24;101129.88;4392383;32;32846;-77
2023/12/19 08:44:23;;;;;;;2.80;2.65;;;;;;;3.01;65.78;101138.66;4413928;32;33769;-77
2023/12/19 08:46:50;;;;;;;2.85;2.62;;;;;;;2.50;66.75;101144.25;4386852;32;32714;-77
2023/12/19 08:49:19;;;;;;;3.22;3.03;;;;;;;2.71;67.31;101134.06;4399955;32;34092;-77
2023/12/19 08:51:47;;;;;;;1.37;1.30;;;;;;;2.67;66.42;101141.84;4399131;32;32604;-77
2023/12/19 08:54:15;;;;;;;1.85;1.75;;;;;;;2.61;67.90;101140.03;4401975;32;33850;-77
2023/12/19 08:56:43;;;;;;;2.58;2.45;;;;;;;2.42;68.56;101135.47;4397960;32;35174;-77
2023/12/19 08:59:11;;;;;;;3.28;2.92;;;;;;;2.51;68.54;101123.41;4400534;32;34830;-77
2023/12/19 09:01:40;;;;;;;2.45;2.25;;;;;;;2.40;68.93;101117.22;4397879;32;33047;-79
2023/12/19 09:04:09;;;;;;;3.55;3.28;;;;;;;3.06;66.50;101110.00;4388616;32;33897;-78
2023/12/19 09:06:36;;;;;;;3.50;2.37;;;;;;;2.65;66.80;101100.06;4386287;32;33321;-77
2023/12/19 09:09:04;;;;;;;1.73;1.63;;;;;;;2.58;67.81;101093.06;4387867;32;34189;-77
2023/12/19 09:11:33;;;;;;;6.22;4.62;;;;;;;2.62;68.04;101091.37;4409789;32;34334;-77
2023/12/19 09:14:01;;;;;;;0.68;0.68;;;;;;;2.98;67.01;101090.78;4400151;32;33025;-77
2023/12/19 09:16:29;;;;;;;3.40;3.20;;;;;;;2.68;67.96;101094.91;4401594;32;33722;-77
2023/12/19 09:18:58;;;;;;;0.50;0.50;;;;;;;2.98;67.59;101090.78;4388768;32;32807;-77
2023/12/19 09:21:26;;;;;;;3.80;3.47;;;;;;;2.73;67.33;101089.72;4400710;32;31259;-78
2023/12/19 09:23:54;;;;;;;1.27;1.27;;;;;;;2.94;67.44;101078.59;4382498;32;33798;-78
2023/12/19 09:26:22;;;;;;;2.30;2.20;;;;;;;3.02;66.96;101061.25;4411585;32;33922;-78
2023/12/19 09:28:50;;;;;;;2.40;2.30;;;;;;;2.67;68.67;101054.03;4388648;32;32139;-78
2023/12/19 09:31:19;;;;;;;2.83;2.58;;;;;;;2.66;69.05;101052.31;4398922;32;33337;-78
2023/12/19 09:33:48;;;;;;;1.87;1.80;;;;;;;3.03;68.04;101047.34;4381759;32;32711;-78
2023/12/19 09:36:24;;;;;;;3.25;2.62;;;;;;;3.33;66.54;101050.16;4413584;32;33158;-78
2023/12/19 09:38:53;;;;;;;4.75;1.83;;;;;;;3.14;66.91;101039.59;4414197;32;32166;-78
2023/12/19 09:41:22;;;;;;;9.40;3.25;;;;;;;3.59;65.57;101024.16;4413803;32;33721;-78
2023/12/19 09:43:50;;;;;;;3.60;3.30;;;;;;;2.89;67.24;101025.50;4372689;32;32507;-78
2023/12/19 09:46:19;;;;;;;4.82;2.53;;;;;;;2.79;68.33;101021.94;4387061;32;32734;-77
2023/12/19 09:48:49;;;;;;;3.30;2.80;;;;;;;2.97;67.65;101005.56;4400166;32;33737;-77
2023/12/19 09:51:28;;;;;;;3.30;1.80;;;;;;;2.89;69.47;101002.03;4402873;32;33984;-77
2023/12/19 09:53:57;;;;;;;3.55;3.35;;;;;;;3.07;67.50;100999.53;4376433;32;32768;-77
2023/12/19 09:56:26;;;;;;;3.12;2.37;;;;;;;3.10;67.75;100991.72;4402784;32;33615;-77
2023/12/19 09:58:55;;;;;;;3.20;3.00;;;;;;;3.54;66.29;100978.88;4399011;32;35487;-77
2023/12/19 10:01:22;;;;;;;1.45;1.40;;;;;;;3.36;66.50;100972.72;4389222;32;33575;-77
2023/12/19 10:03:55;;;;;;;0.75;0.75;;;;;;;3.14;66.97;100975.22;4390639;32;32790;-78
2023/12/19 10:06:23;;;;;;;5.65;4.00;;;;;;;3.39;67.55;100980.56;4400839;32;33354;-77
2023/12/19 10:08:55;;;;;;;1.35;1.23;;;;;;;3.47;66.97;100961.47;4401038;32;33305;-78
2023/12/19 10:11:24;;;;;;;3.25;2.67;;;;;;;3.45;67.72;100957.09;4390137;32;34974;-77
2023/12/19 10:13:52;;;;;;;1.42;1.37;;;;;;;3.29;68.02;100956.16;4375288;32;32295;-77
2023/12/19 10:16:19;;;;;;;0.98;0.98;;;;;;;3.22;68.17;100944.81;4389850;32;32730;-77
2023/12/19 10:19:01;;;;;;;2.83;2.62;;;;;;;3.69;67.01;100938.87;4403088;32;31174;-77
2023/12/19 10:21:31;;;;;;;2.35;2.25;;;;;;;3.44;67.25;100940.56;4403530;32;33091;-77
2023/12/19 10:24:08;;;;;;;3.87;3.58;;;;;;;3.45;67.80;100931.84;4416599;32;33551;-77
2023/12/19 10:26:36;;;;;;;1.48;1.48;;;;;;;3.33;68.43;100929.22;4404526;32;34724;-78
2023/12/19 10:29:05;;;;;;;3.20;2.65;;;;;;;3.41;68.48;100934.44;4403528;32;34187;-77
2023/12/19 10:31:34;;;;;;;2.67;2.53;;;;;;;3.54;67.79;100923.16;4405158;32;33309;-77
2023/12/19 10:34:04;;;;;;;1.10;1.10;;;;;;;3.66;66.98;100917.12;4404086;32;33870;-77
2023/12/19 10:36:33;;;;;;;1.27;1.20;;;;;;;3.73;66.41;100917.12;4403864;32;32674;-77
2023/12/19 10:39:05;;;;;;;2.85;2.75;;;;;;;3.49;66.94;100907.50;4416588;32;33464;-77
2023/12/19 10:41:36;;;;;;;5.55;3.35;;;;;;;3.07;68.06;100918.63;4392035;32;33294;-77
2023/12/19 10:44:04;;;;;;;2.15;2.03;;;;;;;3.00;68.86;100912.53;4403579;32;32445;-77
2023/12/19 10:46:32;;;;;;;4.78;3.53;;;;;;;3.40;67.77;100922.25;4391547;32;35366;-77
2023/12/19 10:49:01;;;;;;;1.83;1.77;;;;;;;3.72;66.46;100915.37;4379094;32;32221;-77
2023/12/19 10:51:32;;;;;;;5.80;1.33;;;;;;;3.67;66.98;100911.91;4388795;32;32011;-77
2023/12/19 10:54:08;;;;;;;2.20;2.12;;;;;;;3.62;66.96;100900.56;4403478;32;34302;-78
2023/12/19 10:57:04;;;;;;;1.52;1.52;;;;;;;3.91;66.08;100892.78;4418675;32;33661;-77
2023/12/19 10:59:50;;;;;;;2.67;2.58;;;;;;;3.56;66.06;100891.00;4416986;32;35008;-78
2023/12/19 11:02:48;;;;;;;1.20;1.12;;;;;;;3.51;67.69;100894.44;4403727;32;33512;-77
2023/12/19 11:05:19;;;;;;;2.30;2.20;;;;;;;3.53;68.36;100887.50;4417529;32;31780;-77
2023/12/19 11:07:50;;;;;;;2.10;2.00;;;;;;;3.65;66.93;100881.41;4416822;32;34693;-78
2023/12/19 11:10:21;;;;;;;1.62;1.58;;;;;;;2.88;68.80;100880.28;4391648;32;33664;-77
2023/12/19 11:12:50;;;;;;;3.25;2.53;;;;;;;2.90;69.72;100884.66;4403592;32;34281;-78
2023/12/19 11:15:18;;;;;;;2.05;1.95;;;;;;;3.41;68.05;100875.25;4391353;32;33159;-77
2023/12/19 11:17:58;;;;;;;2.87;1.62;;;;;;;3.54;66.84;100873.56;4389804;32;33923;-77
2023/12/19 11:20:33;;;;;;;2.53;2.08;;;;;;;3.68;67.59;100864.00;4388857;32;31846;-77
2023/12/19 11:23:20;;;;;;;5.78;3.25;;;;;;;3.54;67.69;100865.72;4412851;32;32876;-78
2023/12/19 11:25:54;;;;;;;0.80;0.80;;;;;;;3.65;67.56;100845.72;4390458;32;32385;-77
2023/12/19 11:28:22;;;;;;;5.65;5.25;;;;;;;3.64;67.27;100833.53;4396640;32;34081;-77
2023/12/19 11:30:49;;;;;;;3.67;3.28;;;;;;;4.04;66.21;100830.94;4400214;32;33170;-78
2023/12/19 11:33:28;;;;;;;5.40;4.43;;;;;;;3.59;67.75;100830.03;4398458;32;33546;-78
2023/12/19 11:36:09;;;;;;;4.37;4.07;;;;;;;3.89;66.69;100823.09;4399089;32;33213;-78
2023/12/19 11:38:37;;;;;;;4.55;4.22;;;;;;;3.55;67.44;100821.31;4398124;32;33781;-78
2023/12/19 11:41:05;;;;;;;2.33;2.22;;;;;;;3.22;69.18;100829.97;4395801;32;34097;-78